Time,TemperatureF,DewpointF,PressureIn,WindDirection,WindDirectionDegrees,WindSpeedMPH,WindSpeedGustMPH,Humidity,HourlyPrecipIn,Conditions,Clouds,dailyrainin,SoftwareType,DateUTC
2013-09-23 00:03:00,60.0,55.0,29.88,ENE,59,0.0,5.0,82,0.00,,,0.00,weatherlink.com 1.10,2013-09-23 05:03:00,
2013-09-23 00:18:00,59.8,54.0,29.88,North,5,1.0,4.0,82,0.00,,,0.00,weatherlink.com 1.10,2013-09-23 05:18:00,
2013-09-23 00:33:00,59.6,54.0,29.88,NE,48,0.0,3.0,82,0.00,,,0.00,weatherlink.com 1.10,2013-09-23 05:33:00,
2013-09-23 00:48:00,59.4,54.0,29.88,ENE,70,1.0,4.0,82,0.00,,,0.00,weatherlink.com 1.10,2013-09-23 05:48:00,
2013-09-23 01:03:00,59.2,54.0,29.89,ENE,65,1.0,3.0,82,0.00,,,0.00,weatherlink.com 1.10,2013-09-23 06:03:00,
2013-09-23 01:18:00,59.0,54.0,29.89,NE,46,0.0,5.0,83,0.00,,,0.00,weatherlink.com 1.10,2013-09-23 06:18:00,
2013-09-23 01:33:00,58.7,54.0,29.89,WNW,298,0.0,3.0,83,0.00,,,0.00,weatherlink.com 1.10,2013-09-23 06:33:00,
2013-09-23 01:48:00,58.4,53.0,29.90,ENE,64,1.0,3.0,83,0.00,,,0.00,weatherlink.com 1.10,2013-09-23 06:48:00,
2013-09-23 02:03:00,58.2,53.0,29.90,ENE,61,3.0,5.0,83,0.00,,,0.00,weatherlink.com 1.10,2013-09-23 07:03:00,
2013-09-23 02:18:00,58.0,53.0,29.90,NE,50,2.0,3.0,83,0.00,,,0.00,weatherlink.com 1.10,2013-09-23 07:18:00,
2013-09-23 02:33:00,58.0,53.0,29.90,NE,56,2.0,4.0,82,0.00,,,0.00,weatherlink.com 1.10,2013-09-23 07:33:00,
2013-09-23 02:48:00,57.8,52.0,29.91,NE,49,2.0,3.0,82,0.00,,,0.00,weatherlink.com 1.10,2013-09-23 07:48:00,
2013-09-23 03:03:00,57.5,52.0,29.90,ENE,63,1.0,5.0,82,0.00,,,0.00,weatherlink.com 1.10,2013-09-23 08:03:00,
2013-09-23 03:18:00,57.3,52.0,29.90,NE,39,2.0,3.0,82,0.00,,,0.00,weatherlink.com 1.10,2013-09-23 08:18:00,
2013-09-23 03:33:00,57.2,51.0,29.90,ENE,58,2.0,3.0,81,0.00,,,0.00,weatherlink.com 1.10,2013-09-23 08:33:00,
2013-09-23 03:48:00,57.1,51.0,29.90,NE,53,1.0,6.0,81,0.00,,,0.00,weatherlink.com 1.10,2013-09-23 08:48:00,
2013-09-23 04:03:00,57.0,51.0,29.90,ENE,65,0.0,4.0,81,0.00,,,0.00,weatherlink.com 1.10,2013-09-23 09:03:00,
2013-09-23 04:18:00,56.8,51.0,29.90,ENE,63,1.0,4.0,81,0.00,,,0.00,weatherlink.com 1.10,2013-09-23 09:18:00,
2013-09-23 04:33:00,56.7,51.0,29.90,NNW,343,1.0,4.0,80,0.00,,,0.00,weatherlink.com 1.10,2013-09-23 09:33:00,
2013-09-23 04:48:00,56.4,51.0,29.90,ENE,77,1.0,4.0,81,0.00,,,0.00,weatherlink.com 1.10,2013-09-23 09:48:00,
2013-09-23 05:03:00,56.1,50.0,29.89,ENE,69,1.0,3.0,81,0.00,,,0.00,weatherlink.com 1.10,2013-09-23 10:03:00,
2013-09-23 05:18:00,55.8,50.0,29.90,ENE,64,0.0,3.0,82,0.00,,,0.00,weatherlink.com 1.10,2013-09-23 10:18:00,
2013-09-23 05:33:00,55.4,50.0,29.90,ENE,78,0.0,3.0,82,0.00,,,0.00,weatherlink.com 1.10,2013-09-23 10:33:00,
2013-09-23 05:48:00,55.1,50.0,29.91,NE,51,0.0,3.0,83,0.00,,,0.00,weatherlink.com 1.10,2013-09-23 10:48:00,
2013-09-23 06:03:00,55.0,50.0,29.91,NE,49,0.0,3.0,83,0.00,,,0.00,weatherlink.com 1.10,2013-09-23 11:03:00,
2013-09-23 06:18:00,54.8,50.0,29.91,ENE,62,0.0,4.0,84,0.00,,,0.00,weatherlink.com 1.10,2013-09-23 11:18:00,
2013-09-23 06:33:00,54.6,50.0,29.92,NE,43,0.0,3.0,84,0.00,,,0.00,weatherlink.com 1.10,2013-09-23 11:33:00,
2013-09-23 06:48:00,54.4,50.0,29.93,ENE,65,1.0,3.0,84,0.00,,,0.00,weatherlink.com 1.10,2013-09-23 11:48:00,
2013-09-23 07:03:00,54.2,50.0,29.93,NNW,338,0.0,2.0,85,0.00,,,0.00,weatherlink.com 1.10,2013-09-23 12:03:00,
2013-09-23 07:18:00,53.8,50.0,29.93,NE,39,0.0,1.0,86,0.00,,,0.00,weatherlink.com 1.10,2013-09-23 12:18:00,
2013-09-23 07:33:00,53.5,50.0,29.93,NE,38,0.0,3.0,87,0.00,,,0.00,weatherlink.com 1.10,2013-09-23 12:33:00,
2013-09-23 07:48:00,53.5,50.0,29.94,NNW,331,1.0,3.0,87,0.00,,,0.00,weatherlink.com 1.10,2013-09-23 12:48:00,
2013-09-23 08:03:00,53.7,50.0,29.94,NE,36,1.0,4.0,87,0.00,,,0.00,weatherlink.com 1.10,2013-09-23 13:03:00,
2013-09-23 08:18:00,54.2,50.0,29.94,ENE,75,4.0,5.0,86,0.00,,,0.00,weatherlink.com 1.10,2013-09-23 13:18:00,
2013-09-23 08:33:00,54.7,50.0,29.94,ENE,61,2.0,6.0,84,0.00,,,0.00,weatherlink.com 1.10,2013-09-23 13:33:00,
2013-09-23 08:48:00,55.1,50.0,29.94,ENE,61,1.0,5.0,84,0.00,,,0.00,weatherlink.com 1.10,2013-09-23 13:48:00,
2013-09-23 09:03:00,55.6,51.0,29.94,North,360,0.0,4.0,83,0.00,,,0.00,weatherlink.com 1.10,2013-09-23 14:03:00,
2013-09-23 09:18:00,56.8,51.0,29.94,ENE,69,8.0,8.0,81,0.00,,,0.00,weatherlink.com 1.10,2013-09-23 14:18:00,
2013-09-23 09:33:00,58.8,52.0,29.94,NE,34,1.0,4.0,78,0.00,,,0.00,weatherlink.com 1.10,2013-09-23 14:33:00,
2013-09-23 09:49:00,60.4,53.0,29.95,NNE,22,2.0,5.0,76,0.00,,,0.00,weatherlink.com 1.10,2013-09-23 14:49:00,
2013-09-23 10:04:00,61.7,53.0,29.95,North,350,1.0,7.0,73,0.00,,,0.00,weatherlink.com 1.10,2013-09-23 15:04:00,
2013-09-23 10:19:00,61.9,53.0,29.94,East,88,1.0,5.0,72,0.00,,,0.00,weatherlink.com 1.10,2013-09-23 15:19:00,
2013-09-23 10:34:00,62.5,53.0,29.94,NE,51,1.0,7.0,71,0.00,,,0.00,weatherlink.com 1.10,2013-09-23 15:34:00,
2013-09-23 10:49:00,63.4,54.0,29.94,ENE,58,5.0,6.0,71,0.00,,,0.00,weatherlink.com 1.10,2013-09-23 15:49:00,
2013-09-23 11:04:00,63.9,54.0,29.93,ENE,71,2.0,6.0,71,0.00,,,0.00,weatherlink.com 1.10,2013-09-23 16:04:00,
2013-09-23 11:19:00,64.5,54.0,29.93,ENE,61,0.0,7.0,69,0.00,,,0.00,weatherlink.com 1.10,2013-09-23 16:19:00,
2013-09-23 11:34:00,65.2,54.0,29.93,ENE,70,3.0,8.0,67,0.00,,,0.00,weatherlink.com 1.10,2013-09-23 16:34:00,
2013-09-23 11:49:00,65.5,55.0,29.92,ENE,61,0.0,6.0,68,0.00,,,0.00,weatherlink.com 1.10,2013-09-23 16:49:00,
2013-09-23 12:04:00,66.1,55.0,29.91,NNW,329,1.0,9.0,67,0.00,,,0.00,weatherlink.com 1.10,2013-09-23 17:04:00,
2013-09-23 12:19:00,66.7,55.0,29.91,ESE,111,2.0,6.0,66,0.00,,,0.00,weatherlink.com 1.10,2013-09-23 17:19:00,
2013-09-23 12:34:00,67.1,55.0,29.90,North,360,3.0,7.0,65,0.00,,,0.00,weatherlink.com 1.10,2013-09-23 17:34:00,
2013-09-23 12:49:00,68.0,56.0,29.90,ENE,73,2.0,7.0,65,0.00,,,0.00,weatherlink.com 1.10,2013-09-23 17:49:00,
2013-09-23 13:04:00,68.6,55.0,29.90,NNW,344,1.0,10.0,63,0.00,,,0.00,weatherlink.com 1.10,2013-09-23 18:04:00,
2013-09-23 13:19:00,69.1,55.0,29.90,ENE,69,3.0,10.0,61,0.00,,,0.00,weatherlink.com 1.10,2013-09-23 18:19:00,
2013-09-23 13:34:00,69.2,55.0,29.89,ESE,109,3.0,9.0,62,0.00,,,0.00,weatherlink.com 1.10,2013-09-23 18:34:00,
2013-09-23 13:49:00,69.5,55.0,29.88,NE,46,2.0,6.0,61,0.00,,,0.00,weatherlink.com 1.10,2013-09-23 18:49:00,
2013-09-23 14:04:00,70.2,56.0,29.87,NNE,20,3.0,9.0,61,0.00,,,0.00,weatherlink.com 1.10,2013-09-23 19:04:00,
2013-09-23 14:19:00,70.5,55.0,29.87,North,355,3.0,9.0,59,0.00,,,0.00,weatherlink.com 1.10,2013-09-23 19:19:00,
2013-09-23 14:34:00,70.9,56.0,29.87,ENE,65,0.0,6.0,59,0.00,,,0.00,weatherlink.com 1.10,2013-09-23 19:34:00,
2013-09-23 14:49:00,71.1,55.0,29.87,NNW,338,2.0,6.0,58,0.00,,,0.00,weatherlink.com 1.10,2013-09-23 19:49:00,
2013-09-23 15:04:00,71.4,55.0,29.87,NE,47,6.0,6.0,57,0.00,,,0.00,weatherlink.com 1.10,2013-09-23 20:04:00,
2013-09-23 15:19:00,71.6,55.0,29.86,East,80,0.0,6.0,57,0.00,,,0.00,weatherlink.com 1.10,2013-09-23 20:19:00,
2013-09-23 15:34:00,71.8,55.0,29.86,North,350,0.0,8.0,56,0.00,,,0.00,weatherlink.com 1.10,2013-09-23 20:34:00,
2013-09-23 15:49:00,71.7,55.0,29.86,NNE,28,0.0,7.0,56,0.00,,,0.00,weatherlink.com 1.10,2013-09-23 20:49:00,
2013-09-23 16:05:00,71.8,55.0,29.86,ENE,76,0.0,7.0,56,0.00,,,0.00,weatherlink.com 1.10,2013-09-23 21:05:00,
2013-09-23 16:19:00,71.6,54.0,29.86,NE,43,2.0,7.0,55,0.00,,,0.00,weatherlink.com 1.10,2013-09-23 21:19:00,
2013-09-23 16:34:00,71.7,55.0,29.85,ENE,61,2.0,7.0,55,0.00,,,0.00,weatherlink.com 1.10,2013-09-23 21:34:00,
2013-09-23 16:50:00,71.8,54.0,29.85,ENE,62,3.0,8.0,54,0.00,,,0.00,weatherlink.com 1.10,2013-09-23 21:50:00,
2013-09-23 17:05:00,71.6,53.0,29.86,NW,306,2.0,7.0,52,0.00,,,0.00,weatherlink.com 1.10,2013-09-23 22:05:00,
2013-09-23 17:20:00,71.7,54.0,29.86,NE,41,2.0,5.0,54,0.00,,,0.00,weatherlink.com 1.10,2013-09-23 22:20:00,
2013-09-23 17:35:00,71.6,54.0,29.86,North,355,2.0,7.0,54,0.00,,,0.00,weatherlink.com 1.10,2013-09-23 22:35:00,
2013-09-23 17:50:00,71.1,54.0,29.86,ENE,78,2.0,10.0,56,0.00,,,0.00,weatherlink.com 1.10,2013-09-23 22:50:00,
2013-09-23 18:05:00,70.7,55.0,29.86,NE,37,3.0,8.0,57,0.00,,,0.00,weatherlink.com 1.10,2013-09-23 23:05:00,
2013-09-23 18:20:00,70.2,55.0,29.86,NNW,340,1.0,8.0,58,0.00,,,0.00,weatherlink.com 1.10,2013-09-23 23:20:00,
2013-09-23 18:35:00,69.5,54.0,29.87,NW,319,3.0,5.0,58,0.00,,,0.00,weatherlink.com 1.10,2013-09-23 23:35:00,
2013-09-23 18:50:00,68.7,54.0,29.86,NNW,346,1.0,4.0,60,0.00,,,0.00,weatherlink.com 1.10,2013-09-23 23:50:00,
2013-09-23 19:05:00,67.9,54.0,29.86,NE,38,1.0,4.0,61,0.00,,,0.00,weatherlink.com 1.10,2013-09-24 00:05:00,
2013-09-23 19:20:00,67.2,54.0,29.87,NW,321,1.0,5.0,63,0.00,,,0.00,weatherlink.com 1.10,2013-09-24 00:20:00,
2013-09-23 19:35:00,66.7,54.0,29.87,NE,49,0.0,4.0,63,0.00,,,0.00,weatherlink.com 1.10,2013-09-24 00:35:00,
2013-09-23 19:50:00,66.2,54.0,29.87,NNE,33,1.0,5.0,65,0.00,,,0.00,weatherlink.com 1.10,2013-09-24 00:50:00,
2013-09-23 20:05:00,65.8,54.0,29.88,ENE,64,1.0,4.0,65,0.00,,,0.00,weatherlink.com 1.10,2013-09-24 01:05:00,
2013-09-23 20:20:00,65.5,54.0,29.89,NNE,22,3.0,5.0,66,0.00,,,0.00,weatherlink.com 1.10,2013-09-24 01:20:00,
2013-09-23 20:35:00,65.0,54.0,29.89,NW,325,1.0,4.0,67,0.00,,,0.00,weatherlink.com 1.10,2013-09-24 01:35:00,
2013-09-23 20:50:00,64.5,54.0,29.90,NE,53,0.0,6.0,69,0.00,,,0.00,weatherlink.com 1.10,2013-09-24 01:50:00,
2013-09-23 21:05:00,64.2,54.0,29.90,NE,39,4.0,5.0,69,0.00,,,0.00,weatherlink.com 1.10,2013-09-24 02:05:00,
2013-09-23 21:20:00,63.8,54.0,29.91,North,360,0.0,4.0,70,0.00,,,0.00,weatherlink.com 1.10,2013-09-24 02:20:00,
2013-09-23 21:35:00,63.4,53.0,29.91,ENE,59,1.0,3.0,70,0.00,,,0.00,weatherlink.com 1.10,2013-09-24 02:35:00,
2013-09-23 21:50:00,62.9,54.0,29.92,NE,50,1.0,2.0,72,0.00,,,0.00,weatherlink.com 1.10,2013-09-24 02:50:00,
2013-09-23 22:05:00,62.5,53.0,29.92,NNE,31,1.0,4.0,72,0.00,,,0.00,weatherlink.com 1.10,2013-09-24 03:05:00,
2013-09-23 22:20:00,62.3,53.0,29.92,NE,36,2.0,4.0,72,0.00,,,0.00,weatherlink.com 1.10,2013-09-24 03:20:00,
2013-09-23 22:35:00,62.2,53.0,29.93,NE,49,2.0,3.0,73,0.00,,,0.00,weatherlink.com 1.10,2013-09-24 03:35:00,
2013-09-23 22:50:00,61.8,53.0,29.92,NE,49,3.0,3.0,73,0.00,,,0.00,weatherlink.com 1.10,2013-09-24 03:50:00,
2013-09-23 23:05:00,61.4,53.0,29.92,NNE,14,0.0,3.0,74,0.00,,,0.00,weatherlink.com 1.10,2013-09-24 04:05:00,
2013-09-23 23:20:00,61.1,53.0,29.92,NE,53,0.0,3.0,75,0.00,,,0.00,weatherlink.com 1.10,2013-09-24 04:20:00,
2013-09-23 23:35:00,60.9,53.0,29.92,NW,310,0.0,5.0,75,0.00,,,0.00,weatherlink.com 1.10,2013-09-24 04:35:00,
2013-09-23 23:50:00,60.7,53.0,29.92,NE,56,0.0,3.0,76,0.00,,,0.00,weatherlink.com 1.10,2013-09-24 04:50:00,